首页
METAR-TAF:

METAR-TAF

机场 :

Narrandera, 澳大利亚

纬度: 34-42-08S, 经度: 146-30-44E, 海拔: 144米

当前天气观测

该预报发布于1小时和18分钟前的00:00 UTC
风速13节,风向西北
温度 15°C
湿度 55%
气压 1017 hPa
能见度10公里或以上
多云层高于11000英尺

METAR: YNAR 310000Z AUTO 32013KT 9999 // BKN110 15/06 Q1017

时间: 11:18 (01:18 UTC)


TAF: 丢失

超过4000个机场的气象观测和天气预报(METAR&TAF报告)。

可查询的气象台以黄色和红色小点在地图上表示。

将鼠标移到小点上方,可查看气象台名称。

然后点击查看天气观测和预报。

如需切换地图:点击带黑十字的绿色按钮放大地图;点击带横线的绿色按钮缩小地图;或者点击绿色箭头查看邻近地区的地图。


METAR-TAF: